createdAt,value
2022-11-28T00:01:22.001Z,19.98
2022-11-28T00:03:49.026Z,18.63
2022-11-28T00:06:16.461Z,20.02
2022-11-28T00:08:43.682Z,21.38
2022-11-28T00:11:12.143Z,18.80
2022-11-28T00:13:38.986Z,18.77
2022-11-28T00:16:08.484Z,18.00
2022-11-28T00:18:35.763Z,19.25
2022-11-28T00:21:08.605Z,21.83
2022-11-28T00:23:35.307Z,19.00
2022-11-28T00:26:06.439Z,18.88
2022-11-28T00:28:33.436Z,20.17
2022-11-28T00:31:00.135Z,23.85
2022-11-28T00:33:27.023Z,20.60
2022-11-28T07:28:05.416Z,29.17
2022-11-28T07:30:32.156Z,26.10
2022-11-28T07:32:58.823Z,24.55
2022-11-28T07:35:25.638Z,33.00
2022-11-28T07:37:52.318Z,21.60
2022-11-28T07:40:20.555Z,25.02
2022-11-28T07:42:48.775Z,23.20
2022-11-28T07:45:15.731Z,25.88
2022-11-28T07:47:42.435Z,22.38
2022-11-28T07:50:09.748Z,27.05
2022-11-28T07:52:36.572Z,21.50
2022-11-28T07:55:03.432Z,25.00
2022-11-28T07:57:30.701Z,23.10
2022-11-28T07:59:57.450Z,23.10
2022-11-28T08:02:24.128Z,23.80
2022-11-28T08:04:55.067Z,21.23
2022-11-28T08:07:22.042Z,20.80
2022-11-28T08:09:48.736Z,21.80
2022-11-28T08:12:15.363Z,21.23
2022-11-28T08:14:42.426Z,20.02
2022-11-28T08:17:09.646Z,20.92
2022-11-28T08:19:39.001Z,21.25
2022-11-28T08:22:05.658Z,18.40
2022-11-28T08:24:32.291Z,23.65
2022-11-28T08:26:58.887Z,23.38
2022-11-28T08:29:25.499Z,20.33
2022-11-28T08:31:52.127Z,23.38
2022-11-28T08:34:18.783Z,21.25
2022-11-28T08:36:47.249Z,23.23
2022-11-28T08:39:23.908Z,21.83
2022-11-28T08:41:51.627Z,21.73
2022-11-28T08:44:18.457Z,20.10
2022-11-28T08:46:45.135Z,23.65
2022-11-28T08:49:11.811Z,21.15
2022-11-28T08:51:38.475Z,22.50
2022-11-28T08:54:05.262Z,22.40
2022-11-28T08:56:31.925Z,18.23
2022-11-28T08:58:59.533Z,21.08
2022-11-28T09:01:27.256Z,19.55
2022-11-28T09:03:55.240Z,20.58
2022-11-28T09:06:22.895Z,20.88
2022-11-28T09:08:50.368Z,20.88
2022-11-28T09:11:19.615Z,20.25
2022-11-28T09:13:46.616Z,20.05
2022-11-28T09:16:14.678Z,20.27
2022-11-28T09:18:41.507Z,18.98
2022-11-28T09:21:10.703Z,21.65
2022-11-28T09:23:38.278Z,18.35
2022-11-28T09:26:19.650Z,21.30
2022-11-28T09:28:47.114Z,21.25
2022-11-28T09:31:15.814Z,20.20
2022-11-28T09:33:43.526Z,19.77
2022-11-28T09:36:17.339Z,18.60
2022-11-28T09:38:44.282Z,21.55
2022-11-28T09:41:51.916Z,18.67
2022-11-28T09:44:53.133Z,20.08
2022-11-28T09:47:29.016Z,19.48
2022-11-28T09:50:03.400Z,17.38
2022-11-28T09:52:44.199Z,20.63
2022-11-28T09:55:25.994Z,20.45
2022-11-28T09:57:54.028Z,17.45
2022-11-28T10:00:23.974Z,20.58
2022-11-28T10:03:28.218Z,17.98
2022-11-28T10:06:04.695Z,20.95
2022-11-28T10:08:56.042Z,17.42
2022-11-28T10:11:42.485Z,19.88
2022-11-28T10:14:46.275Z,20.25
2022-11-28T10:18:05.955Z,23.25
2022-11-28T10:20:42.099Z,21.55
2022-11-28T10:23:26.564Z,20.23
2022-11-28T10:26:28.506Z,18.33
2022-11-28T10:28:59.780Z,21.50
2022-11-28T10:31:34.860Z,22.05
2022-11-28T10:34:09.341Z,19.40
2022-11-28T10:37:05.403Z,21.77
2022-11-28T10:39:32.519Z,20.25
2022-11-28T10:42:17.814Z,17.90
2022-11-28T10:45:03.004Z,22.48
2022-11-28T10:47:47.123Z,21.17
2022-11-28T10:50:20.338Z,18.50
2022-11-28T10:52:57.942Z,21.20
2022-11-28T10:55:36.554Z,20.17
2022-11-28T10:58:30.102Z,20.40
2022-11-28T11:00:58.434Z,18.23
2022-11-28T11:03:29.741Z,19.42
2022-11-28T11:05:56.411Z,22.10
2022-11-28T11:08:28.955Z,20.15
2022-11-28T11:11:29.411Z,17.98
2022-11-28T11:14:09.416Z,19.45
2022-11-28T11:17:04.227Z,18.73
2022-11-28T11:19:36.592Z,21.33
2022-11-28T11:22:05.514Z,18.13
2022-11-28T11:24:32.234Z,18.98
2022-11-28T11:27:21.404Z,21.02
2022-11-28T11:29:51.342Z,19.00
2022-11-28T11:32:24.804Z,20.17
2022-11-28T11:34:51.922Z,20.95
2022-11-28T11:37:36.842Z,22.75
2022-11-28T11:40:27.539Z,18.90
2022-11-28T11:42:57.950Z,18.25
2022-11-28T11:45:34.033Z,18.75
2022-11-28T11:48:01.849Z,20.17
2022-11-28T11:50:30.371Z,20.50
2022-11-28T11:53:14.535Z,25.52
2022-11-28T11:55:51.364Z,18.35
2022-11-28T11:58:37.310Z,20.08
2022-11-28T12:01:06.303Z,21.33
2022-11-28T12:03:54.661Z,20.42
2022-11-28T12:06:27.872Z,23.30
2022-11-28T12:09:26.649Z,19.73
2022-11-28T12:11:59.435Z,22.85
2022-11-28T12:14:29.819Z,21.88
2022-11-28T12:20:04.243Z,21.80
2022-11-28T12:22:59.608Z,20.88
2022-11-28T12:25:39.693Z,19.15
2022-11-28T12:28:33.647Z,21.77
2022-11-28T12:31:34.292Z,23.35
2022-11-28T12:34:16.054Z,21.63
2022-11-28T12:36:59.779Z,20.45
2022-11-28T12:39:59.913Z,17.45
2022-11-28T12:42:52.151Z,20.27
2022-11-28T12:45:21.651Z,21.90
2022-11-28T12:48:13.295Z,25.02
2022-11-28T12:50:49.632Z,21.00
2022-11-28T12:53:53.433Z,21.40
2022-11-28T12:56:38.294Z,21.50
2022-11-28T12:59:14.421Z,22.10
2022-11-28T13:01:51.525Z,21.10
2022-11-28T13:04:40.808Z,21.98
2022-11-28T13:07:28.094Z,24.13
2022-11-28T13:10:18.219Z,21.27
2022-11-28T13:13:21.766Z,19.83
2022-11-28T13:16:06.663Z,21.75
2022-11-28T13:18:40.694Z,19.55
2022-11-28T13:21:23.208Z,23.60
2022-11-28T13:24:34.667Z,20.65
2022-11-28T13:27:16.157Z,22.90
2022-11-28T13:29:50.426Z,23.50
2022-11-28T13:32:28.868Z,24.08
2022-11-28T13:34:56.068Z,24.48
2022-11-28T13:40:49.909Z,21.70
2022-11-28T13:43:38.094Z,24.67
2022-11-28T13:46:07.964Z,23.73
2022-11-28T13:49:13.112Z,22.02
2022-11-28T13:51:30.525Z,22.50
2022-11-28T13:57:25.082Z,22.90
2022-11-28T14:00:02.203Z,28.42
2022-11-28T14:02:53.903Z,23.75
2022-11-28T14:05:33.667Z,23.40
2022-11-28T14:08:01.925Z,23.73
2022-11-28T14:10:28.839Z,20.55
2022-11-28T14:13:27.976Z,22.58
2022-11-28T14:16:18.664Z,22.75
2022-11-28T14:19:10.103Z,22.10
2022-11-28T14:21:53.163Z,25.58
2022-11-28T14:24:57.700Z,21.23
2022-11-28T14:27:32.061Z,25.30
2022-11-28T14:30:00.336Z,24.30
2022-11-28T14:32:34.673Z,22.85
2022-11-28T14:35:04.462Z,23.08
2022-11-28T14:37:33.976Z,24.13
2022-11-28T14:40:00.972Z,23.50
2022-11-28T14:42:59.990Z,20.77
2022-11-28T14:45:43.547Z,24.55
2022-11-28T14:48:28.972Z,23.25
2022-11-28T14:51:01.383Z,24.42
2022-11-28T14:53:37.480Z,21.52
2022-11-28T14:56:22.510Z,23.67
2022-11-28T14:58:51.006Z,25.75
2022-11-28T15:01:48.562Z,24.65
2022-11-28T15:07:00.552Z,22.23
2022-11-28T15:09:34.522Z,24.02
2022-11-28T15:12:49.003Z,23.48
2022-11-28T15:15:17.478Z,24.58
2022-11-28T15:17:49.202Z,26.35
2022-11-28T15:20:42.406Z,25.20
2022-11-28T15:23:23.718Z,26.08
2022-11-28T15:25:55.679Z,23.13
2022-11-28T15:28:27.263Z,23.65
2022-11-28T15:30:56.583Z,23.95
2022-11-28T15:33:25.867Z,24.15
2022-11-28T15:35:55.543Z,23.73
2022-11-28T15:38:22.739Z,25.40
2022-11-28T15:40:52.345Z,25.02
2022-11-28T15:43:19.595Z,23.35
2022-11-28T15:46:05.831Z,25.75
2022-11-28T15:48:40.194Z,24.85
2022-11-28T15:51:08.203Z,25.95
2022-11-28T15:53:41.004Z,21.35
2022-11-28T15:56:09.194Z,24.00
2022-11-28T15:58:36.479Z,27.63
2022-11-28T16:01:08.434Z,27.05
2022-11-28T16:03:43.331Z,25.60
2022-11-28T16:06:10.137Z,26.17
2022-11-28T16:08:42.618Z,26.65
2022-11-28T16:11:10.677Z,23.25
2022-11-28T16:13:39.238Z,23.60
2022-11-28T16:16:12.555Z,23.30
2022-11-28T16:18:44.995Z,26.05
2022-11-28T16:21:13.689Z,25.50
2022-11-28T16:23:41.278Z,26.88
2022-11-28T16:26:29.319Z,27.38
2022-11-28T16:29:14.715Z,25.13
2022-11-28T16:31:43.903Z,26.85
2022-11-28T16:34:14.803Z,24.10
2022-11-28T16:36:45.668Z,29.80
2022-11-28T16:39:16.286Z,30.02
2022-11-28T16:42:05.561Z,30.08
2022-11-28T16:44:33.520Z,27.40
2022-11-28T16:47:06.678Z,27.70
2022-11-28T16:49:37.250Z,27.02
2022-11-28T16:52:27.313Z,27.33
2022-11-28T16:54:55.073Z,28.75
2022-11-28T16:57:22.115Z,29.10
2022-11-28T16:59:52.626Z,29.38
2022-11-28T17:02:24.894Z,27.52
2022-11-28T17:04:52.955Z,25.83
2022-11-28T17:07:21.945Z,25.85
2022-11-28T17:09:49.743Z,25.73
2022-11-28T17:12:34.592Z,24.25
2022-11-28T17:15:01.321Z,30.15
2022-11-28T17:17:29.737Z,28.17
2022-11-28T17:19:56.437Z,25.42
2022-11-28T17:22:40.251Z,27.75
2022-11-28T17:25:13.063Z,27.17
2022-11-28T17:27:39.747Z,26.55
2022-11-28T17:30:07.142Z,27.75
2022-11-28T17:32:33.884Z,27.27
2022-11-28T17:35:03.882Z,28.92
2022-11-28T17:37:30.609Z,26.63
2022-11-28T17:40:16.085Z,26.80
2022-11-28T17:42:42.755Z,28.67
2022-11-28T17:45:15.699Z,27.85
2022-11-28T17:47:43.111Z,28.50
2022-11-28T17:50:11.230Z,24.48
2022-11-28T17:52:37.865Z,32.20
2022-11-28T17:55:07.176Z,26.20
2022-11-28T17:57:34.395Z,28.85
2022-11-28T18:00:01.139Z,27.45
2022-11-28T18:02:28.024Z,28.25
2022-11-28T18:04:54.718Z,28.50
2022-11-28T18:07:21.601Z,31.30
2022-11-28T18:09:48.383Z,28.27
2022-11-28T18:12:15.116Z,30.25
2022-11-28T18:14:42.085Z,28.13
2022-11-28T18:17:08.765Z,28.58
2022-11-28T18:19:35.719Z,27.52
2022-11-28T18:22:02.455Z,26.70
2022-11-28T18:24:29.533Z,29.33
2022-11-28T18:26:56.368Z,24.77
2022-11-28T18:29:22.995Z,28.23
2022-11-28T18:31:49.757Z,27.23
2022-11-28T18:34:16.765Z,31.40
2022-11-28T18:36:43.552Z,30.48
2022-11-28T18:39:13.605Z,27.92
2022-11-28T18:41:40.862Z,26.17
2022-11-28T18:44:07.991Z,26.30
2022-11-28T18:46:35.243Z,25.15
2022-11-28T18:49:03.205Z,25.73
2022-11-28T18:51:33.190Z,27.75
2022-11-28T18:54:03.646Z,28.45
2022-11-28T18:56:34.077Z,24.77
2022-11-28T18:59:00.997Z,27.00
2022-11-28T19:01:30.816Z,28.88
2022-11-28T19:04:00.945Z,28.27
2022-11-28T19:06:28.389Z,26.70
2022-11-28T19:08:58.239Z,31.58
2022-11-28T19:11:25.784Z,28.23
2022-11-28T19:13:53.429Z,26.13
2022-11-28T19:16:23.536Z,30.17
2022-11-28T19:18:50.293Z,28.15
2022-11-28T19:21:23.382Z,28.98
2022-11-28T19:23:51.431Z,29.98
2022-11-28T19:26:21.888Z,29.17
2022-11-28T19:28:49.255Z,26.67
2022-11-28T19:31:21.297Z,27.35
2022-11-28T19:34:01.159Z,26.08
2022-11-28T19:36:32.916Z,30.48
2022-11-28T19:39:00.150Z,28.95
2022-11-28T19:41:29.591Z,28.75
2022-11-28T19:43:57.263Z,29.85
2022-11-28T19:46:23.992Z,27.92
2022-11-28T19:48:51.687Z,26.80
2022-11-28T19:51:19.379Z,27.23
2022-11-28T19:53:48.737Z,27.77
2022-11-28T19:56:19.085Z,30.00
2022-11-28T19:58:46.398Z,27.25
2022-11-28T20:01:15.851Z,27.98
2022-11-28T20:03:43.450Z,28.23
2022-11-28T20:06:13.587Z,28.63
2022-11-28T20:08:41.208Z,33.22
2022-11-28T20:11:18.075Z,27.10
2022-11-28T20:13:45.367Z,26.95
2022-11-28T20:16:14.497Z,29.35
2022-11-28T20:18:43.270Z,28.30
2022-11-28T20:21:16.759Z,29.67
2022-11-28T20:23:49.500Z,28.15
2022-11-28T20:26:17.999Z,29.80
2022-11-28T20:28:45.710Z,27.85
2022-11-28T20:31:45.282Z,29.15
2022-11-28T20:34:16.625Z,29.60
2022-11-28T20:36:44.015Z,31.58
2022-11-28T20:39:11.976Z,29.15
2022-11-28T20:41:38.686Z,29.23
2022-11-28T20:44:05.594Z,30.42
2022-11-28T20:46:35.975Z,29.70
2022-11-28T20:49:05.183Z,28.83
2022-11-28T20:51:33.875Z,28.13
2022-11-28T20:54:01.469Z,26.90
2022-11-28T20:56:31.639Z,27.75
2022-11-28T20:59:00.651Z,29.30
2022-11-28T21:01:33.286Z,29.65
2022-11-28T21:04:02.966Z,29.70
2022-11-28T21:06:30.031Z,30.90
2022-11-28T21:08:57.697Z,30.67
2022-11-28T21:11:55.048Z,28.65
2022-11-28T21:14:14.127Z,30.88
2022-11-28T21:16:40.910Z,30.40
2022-11-28T21:19:12.769Z,33.22
2022-11-28T21:21:40.052Z,31.15
2022-11-28T21:24:14.256Z,31.65
2022-11-28T21:26:46.546Z,29.73
2022-11-28T21:29:16.406Z,29.65
2022-11-28T21:31:45.282Z,30.13
2022-11-28T21:34:14.392Z,31.00
2022-11-28T21:36:42.416Z,31.55
2022-11-28T21:39:19.759Z,29.92
2022-11-28T21:41:46.867Z,29.85
2022-11-28T21:44:13.549Z,31.60
2022-11-28T21:46:40.360Z,35.90
2022-11-28T21:49:07.037Z,33.08
2022-11-28T21:51:38.636Z,31.70
2022-11-28T21:54:05.834Z,35.45
2022-11-28T21:56:32.568Z,30.48
2022-11-28T21:58:59.297Z,37.53
2022-11-28T22:01:26.117Z,32.65
2022-11-28T22:03:54.421Z,33.33
2022-11-28T22:06:25.067Z,36.10
2022-11-28T22:08:53.475Z,31.80
2022-11-28T22:11:21.242Z,36.15
2022-11-28T22:13:49.039Z,33.15
2022-11-28T22:16:25.016Z,32.65
2022-11-28T22:18:54.687Z,33.40
2022-11-28T22:21:51.189Z,33.85
2022-11-28T22:24:09.066Z,29.85
2022-11-28T22:26:36.035Z,32.85
2022-11-28T22:29:04.037Z,34.03
2022-11-28T22:31:31.943Z,33.28
2022-11-28T22:33:58.824Z,35.00
2022-11-28T22:36:25.544Z,32.55
2022-11-28T22:38:57.375Z,39.20
2022-11-28T22:41:29.382Z,36.03
2022-11-28T22:44:01.496Z,34.85
2022-11-28T22:46:30.663Z,36.25
2022-11-28T22:49:02.652Z,34.88
2022-11-28T22:51:31.103Z,39.03
2022-11-28T22:54:01.354Z,35.90
2022-11-28T22:56:31.941Z,37.38
2022-11-28T22:58:59.229Z,37.92
2022-11-28T23:01:30.089Z,38.67
2022-11-28T23:03:57.812Z,40.58
2022-11-28T23:06:29.960Z,38.53
